createdAt,value
2019-03-29T00:01:06.894Z,20.50
2019-03-29T00:03:37.085Z,20.50
2019-03-29T00:06:07.278Z,20.50
2019-03-29T00:08:37.488Z,20.50
2019-03-29T00:11:07.718Z,20.50
2019-03-29T00:13:38.997Z,20.50
2019-03-29T00:16:09.246Z,20.50
2019-03-29T00:18:39.426Z,20.50
2019-03-29T00:21:09.643Z,20.50
2019-03-29T00:23:39.847Z,20.50
2019-03-29T00:26:10.027Z,20.40
2019-03-29T00:28:40.221Z,20.40
2019-03-29T00:31:10.394Z,20.40
2019-03-29T00:33:40.574Z,20.40
2019-03-29T00:36:10.754Z,20.30
2019-03-29T00:38:40.938Z,20.30
2019-03-29T00:41:11.114Z,20.30
2019-03-29T00:43:41.303Z,20.30
2019-03-29T00:46:12.006Z,20.20
2019-03-29T00:48:42.380Z,20.20
2019-03-29T00:51:12.550Z,20.20
2019-03-29T00:53:42.739Z,20.10
2019-03-29T00:56:13.117Z,20.10
2019-03-29T00:58:43.615Z,20.10
2019-03-29T01:01:13.803Z,20.00
2019-03-29T01:03:43.990Z,20.00
2019-03-29T01:06:14.170Z,19.90
2019-03-29T01:08:44.438Z,19.90
2019-03-29T01:11:15.590Z,19.80
2019-03-29T01:13:45.855Z,19.80
2019-03-29T01:16:16.102Z,19.80
2019-03-29T01:18:46.290Z,19.80
2019-03-29T01:21:16.491Z,19.70
2019-03-29T01:23:46.679Z,19.60
2019-03-29T01:26:16.870Z,19.60
2019-03-29T01:28:47.055Z,19.70
2019-03-29T01:31:17.235Z,19.80
2019-03-29T01:33:47.414Z,19.80
2019-03-29T01:36:17.586Z,19.70
2019-03-29T01:38:47.770Z,19.70
2019-03-29T01:41:17.956Z,19.60
2019-03-29T01:43:48.139Z,19.60
2019-03-29T01:46:18.382Z,19.60
2019-03-29T01:48:49.060Z,19.60
2019-03-29T01:51:20.691Z,19.60
2019-03-29T01:53:50.878Z,19.60
2019-03-29T01:56:21.135Z,19.60
2019-03-29T01:58:51.324Z,19.60
2019-03-29T02:01:21.498Z,19.60
2019-03-29T02:03:51.695Z,19.50
2019-03-29T02:06:21.863Z,19.50
2019-03-29T02:08:52.046Z,19.50
2019-03-29T02:11:22.315Z,19.50
2019-03-29T02:13:52.502Z,19.40
2019-03-29T02:16:23.859Z,19.30
2019-03-29T02:18:54.126Z,19.20
2019-03-29T02:21:25.294Z,19.20
2019-03-29T02:23:56.919Z,19.30
2019-03-29T02:26:27.494Z,19.30
2019-03-29T02:28:57.682Z,19.30
2019-03-29T02:31:28.941Z,19.30
2019-03-29T02:34:00.488Z,19.30
2019-03-29T02:36:30.674Z,19.30
2019-03-29T02:39:00.864Z,19.20
2019-03-29T02:41:32.667Z,19.20
2019-03-29T02:44:03.927Z,19.20
2019-03-29T02:46:34.127Z,19.20
2019-03-29T02:49:04.392Z,19.20
2019-03-29T02:51:34.650Z,19.10
2019-03-29T02:54:05.080Z,19.20
2019-03-29T02:56:35.348Z,19.10
2019-03-29T02:59:05.575Z,19.20
2019-03-29T03:01:35.774Z,19.20
2019-03-29T03:04:06.038Z,19.10
2019-03-29T03:06:36.215Z,19.10
2019-03-29T03:09:13.738Z,19.10
2019-03-29T03:11:39.155Z,19.10
2019-03-29T03:14:09.346Z,19.10
2019-03-29T03:16:39.591Z,19.00
2019-03-29T03:19:09.775Z,19.00
2019-03-29T03:21:39.951Z,19.00
2019-03-29T03:24:10.132Z,18.90
2019-03-29T03:26:40.391Z,18.90
2019-03-29T03:29:10.622Z,18.90
2019-03-29T03:31:41.915Z,18.90
2019-03-29T03:34:12.344Z,18.90
2019-03-29T03:36:42.536Z,18.80
2019-03-29T03:39:30.218Z,18.80
2019-03-29T03:41:44.606Z,18.80
2019-03-29T03:44:14.820Z,18.80
2019-03-29T03:46:45.000Z,18.80
2019-03-29T03:49:15.191Z,18.90
2019-03-29T03:51:45.563Z,18.90
2019-03-29T03:54:15.991Z,18.80
2019-03-29T03:56:48.648Z,18.80
2019-03-29T03:59:19.475Z,18.70
2019-03-29T04:01:49.688Z,18.70
2019-03-29T04:04:19.916Z,18.70
2019-03-29T04:06:50.100Z,18.70
2019-03-29T04:09:20.280Z,18.70
2019-03-29T04:11:50.471Z,18.70
2019-03-29T04:14:20.648Z,18.70
2019-03-29T04:16:50.908Z,18.60
2019-03-29T04:19:21.082Z,18.60
2019-03-29T04:21:51.273Z,18.60
2019-03-29T04:24:21.451Z,18.60
2019-03-29T04:26:53.647Z,18.60
2019-03-29T04:29:23.831Z,18.60
2019-03-29T04:31:54.032Z,18.60
2019-03-29T04:34:24.474Z,18.70
2019-03-29T04:36:54.663Z,18.70
2019-03-29T04:39:24.839Z,18.70
2019-03-29T04:41:55.035Z,18.70
2019-03-29T04:44:25.206Z,18.70
2019-03-29T04:46:55.391Z,18.60
2019-03-29T04:49:25.589Z,18.60
2019-03-29T04:51:55.766Z,18.50
2019-03-29T04:54:26.018Z,18.50
2019-03-29T04:56:56.273Z,18.50
2019-03-29T04:59:26.478Z,18.50
2019-03-29T05:01:56.658Z,18.50
2019-03-29T05:04:26.910Z,18.40
2019-03-29T05:06:57.112Z,18.40
2019-03-29T05:09:27.288Z,18.30
2019-03-29T05:11:57.483Z,18.40
2019-03-29T05:14:27.664Z,18.30
2019-03-29T05:16:57.855Z,18.30
2019-03-29T05:19:28.150Z,18.40
2019-03-29T05:21:58.333Z,18.40
2019-03-29T05:24:28.506Z,18.40
2019-03-29T05:26:58.697Z,18.40
2019-03-29T05:29:28.876Z,18.30
2019-03-29T05:31:59.068Z,18.30
2019-03-29T05:34:29.242Z,18.30
2019-03-29T05:36:59.531Z,18.40
2019-03-29T05:39:29.707Z,18.30
2019-03-29T05:41:59.966Z,18.40
2019-03-29T05:44:31.295Z,18.30
2019-03-29T05:47:01.487Z,18.40
2019-03-29T05:49:31.658Z,18.30
2019-03-29T05:52:01.851Z,18.30
2019-03-29T05:54:34.137Z,18.30
2019-03-29T05:57:11.386Z,18.30
2019-03-29T05:59:41.567Z,18.40
2019-03-29T06:02:14.972Z,18.40
2019-03-29T06:04:45.151Z,18.40
2019-03-29T06:07:15.406Z,18.40
2019-03-29T06:09:45.585Z,18.40
2019-03-29T06:12:15.787Z,18.40
2019-03-29T06:14:45.967Z,18.40
2019-03-29T06:17:16.171Z,18.40
2019-03-29T06:19:46.334Z,18.40
2019-03-29T06:22:16.519Z,18.50
2019-03-29T06:24:48.358Z,18.60
2019-03-29T06:27:18.543Z,18.60
2019-03-29T06:29:48.724Z,18.80
2019-03-29T06:32:18.910Z,18.90
2019-03-29T06:34:49.167Z,18.90
2019-03-29T06:37:20.612Z,18.90
2019-03-29T06:39:52.654Z,19.10
2019-03-29T06:42:22.942Z,19.40
2019-03-29T06:44:53.161Z,19.50
2019-03-29T06:47:23.378Z,19.80
2019-03-29T06:49:53.862Z,20.10
2019-03-29T06:52:24.056Z,20.30
2019-03-29T06:54:54.290Z,20.40
2019-03-29T06:57:24.478Z,20.30
2019-03-29T06:59:54.734Z,20.00
2019-03-29T07:02:24.919Z,19.90
2019-03-29T07:04:55.095Z,19.80
2019-03-29T07:07:26.258Z,19.80
2019-03-29T07:09:56.434Z,19.90
2019-03-29T07:12:26.623Z,19.80
2019-03-29T07:14:56.820Z,19.90
2019-03-29T07:17:27.078Z,19.90
2019-03-29T07:19:57.260Z,20.00
2019-03-29T07:22:27.442Z,20.10
2019-03-29T07:24:57.623Z,20.20
2019-03-29T07:27:27.923Z,20.30
2019-03-29T07:29:58.098Z,20.40
2019-03-29T07:32:29.354Z,20.80
2019-03-29T07:38:39.122Z,21.30
2019-03-29T07:41:09.302Z,21.50
2019-03-29T07:43:39.491Z,21.60
2019-03-29T07:46:09.671Z,21.60
2019-03-29T07:48:40.465Z,21.60
2019-03-29T07:51:10.889Z,21.80
2019-03-29T07:53:44.719Z,21.60
2019-03-29T07:56:14.237Z,21.00
2019-03-29T07:58:44.423Z,21.00
2019-03-29T08:01:15.658Z,21.10
2019-03-29T08:03:45.950Z,21.30
2019-03-29T08:06:16.128Z,21.70
2019-03-29T08:08:46.319Z,21.70
2019-03-29T08:11:26.074Z,21.70
2019-03-29T08:13:48.487Z,21.70
2019-03-29T08:16:18.743Z,21.70
2019-03-29T08:18:48.947Z,21.90
2019-03-29T08:21:19.127Z,22.10
2019-03-29T08:23:49.318Z,22.00
2019-03-29T08:26:19.495Z,22.00
2019-03-29T08:28:50.156Z,22.10
2019-03-29T08:31:20.479Z,22.40
2019-03-29T08:33:50.671Z,22.40
2019-03-29T08:36:20.844Z,22.40
2019-03-29T08:38:51.027Z,22.20
2019-03-29T08:41:21.262Z,22.10
2019-03-29T08:43:51.447Z,22.00
2019-03-29T08:46:21.630Z,22.10
2019-03-29T08:48:51.808Z,22.20
2019-03-29T08:51:21.995Z,22.40
2019-03-29T08:53:52.263Z,22.30
2019-03-29T08:56:22.496Z,22.20
2019-03-29T08:58:52.716Z,22.30
2019-03-29T09:01:22.902Z,22.60
2019-03-29T09:04:04.594Z,22.90
2019-03-29T09:06:25.221Z,23.20
2019-03-29T09:08:56.781Z,23.40
2019-03-29T09:11:26.983Z,23.40
2019-03-29T09:13:57.247Z,23.40
2019-03-29T09:16:27.423Z,23.50
2019-03-29T09:18:57.790Z,23.40
2019-03-29T09:21:28.001Z,23.50
2019-03-29T09:23:58.226Z,23.40
2019-03-29T09:26:28.394Z,23.50
2019-03-29T09:28:58.675Z,23.60
2019-03-29T09:31:28.868Z,23.70
2019-03-29T09:33:59.153Z,23.70
2019-03-29T09:36:29.597Z,23.70
2019-03-29T09:39:00.847Z,23.70
2019-03-29T09:41:31.511Z,23.70
2019-03-29T09:44:01.776Z,23.70
2019-03-29T09:46:32.036Z,23.70
2019-03-29T09:49:02.311Z,23.80
2019-03-29T09:51:35.796Z,23.80
2019-03-29T09:54:04.419Z,23.80
2019-03-29T09:56:39.284Z,23.80
2019-03-29T09:59:06.491Z,23.80
2019-03-29T10:01:36.751Z,23.80
2019-03-29T10:04:07.256Z,23.80
2019-03-29T10:06:37.514Z,23.80
2019-03-29T10:09:08.234Z,23.70
2019-03-29T10:11:38.426Z,23.40
2019-03-29T10:14:08.619Z,23.40
2019-03-29T10:16:38.879Z,23.50
2019-03-29T10:19:09.073Z,23.60
2019-03-29T10:21:39.259Z,23.60
2019-03-29T10:24:09.430Z,23.60
2019-03-29T10:26:39.615Z,23.70
2019-03-29T10:29:09.798Z,23.70
2019-03-29T10:31:40.019Z,23.60
2019-03-29T10:34:10.249Z,23.80
2019-03-29T10:36:40.429Z,23.80
2019-03-29T10:39:13.017Z,23.70
2019-03-29T10:41:43.416Z,23.80
2019-03-29T10:44:13.602Z,23.90
2019-03-29T10:46:43.800Z,23.70
2019-03-29T10:49:14.022Z,23.60
2019-03-29T10:51:44.278Z,23.50
2019-03-29T10:54:14.472Z,23.40
2019-03-29T10:56:44.656Z,23.40
2019-03-29T10:59:26.645Z,23.30
2019-03-29T11:01:46.726Z,23.20
2019-03-29T11:04:16.995Z,23.30
2019-03-29T11:06:47.170Z,23.20
2019-03-29T11:09:17.353Z,23.20
2019-03-29T11:11:47.803Z,23.30
2019-03-29T11:14:17.991Z,23.20
2019-03-29T11:16:48.162Z,23.10
2019-03-29T11:19:18.354Z,23.30
2019-03-29T11:21:48.531Z,23.40
2019-03-29T11:24:18.799Z,23.40
2019-03-29T11:26:48.979Z,23.40
2019-03-29T11:29:19.170Z,23.50
2019-03-29T11:31:49.345Z,23.40
2019-03-29T11:34:21.084Z,23.40
2019-03-29T11:36:52.851Z,23.40
2019-03-29T11:39:27.300Z,23.40
2019-03-29T11:41:56.234Z,23.30
2019-03-29T11:44:26.415Z,23.20
2019-03-29T11:46:56.669Z,22.90
2019-03-29T11:49:26.894Z,22.30
2019-03-29T11:51:57.150Z,22.10
2019-03-29T11:54:27.354Z,22.10
2019-03-29T11:56:57.524Z,21.80
2019-03-29T11:59:27.862Z,21.60
2019-03-29T12:01:58.098Z,21.10
2019-03-29T12:04:28.295Z,21.30
2019-03-29T12:06:58.486Z,21.90
2019-03-29T12:09:28.674Z,22.30
2019-03-29T12:11:58.878Z,22.50
2019-03-29T12:14:29.061Z,22.70
2019-03-29T12:16:59.242Z,22.70
2019-03-29T12:19:30.514Z,22.80
2019-03-29T12:22:00.696Z,22.80
2019-03-29T12:24:30.878Z,22.80
2019-03-29T12:27:01.064Z,22.60
2019-03-29T12:29:31.262Z,22.40
2019-03-29T12:32:01.448Z,22.30
2019-03-29T12:34:31.643Z,22.50
2019-03-29T12:37:01.821Z,22.50
2019-03-29T12:39:32.007Z,22.70
2019-03-29T12:42:02.206Z,22.70
2019-03-29T12:44:32.387Z,22.70
2019-03-29T12:47:02.558Z,22.70
2019-03-29T12:49:32.756Z,22.70
2019-03-29T12:52:02.943Z,22.70
2019-03-29T12:54:33.215Z,22.60
2019-03-29T12:57:06.838Z,22.50
2019-03-29T12:59:36.314Z,22.60
2019-03-29T13:02:06.677Z,22.60
2019-03-29T13:04:36.870Z,22.50
2019-03-29T13:07:07.063Z,22.50
2019-03-29T13:09:39.795Z,22.50
2019-03-29T13:12:09.574Z,22.20
2019-03-29T13:14:39.761Z,21.90
2019-03-29T13:17:09.971Z,22.00
2019-03-29T13:19:40.151Z,22.20
2019-03-29T13:22:10.599Z,22.10
2019-03-29T13:24:40.789Z,22.10
2019-03-29T13:27:11.042Z,22.30
2019-03-29T13:29:41.218Z,22.50
2019-03-29T13:32:11.415Z,22.40
2019-03-29T13:34:41.595Z,22.40
2019-03-29T13:37:11.942Z,22.40
2019-03-29T13:39:42.134Z,22.50
2019-03-29T13:42:12.344Z,22.40
2019-03-29T13:44:43.482Z,22.50
2019-03-29T13:47:13.686Z,22.40
2019-03-29T13:49:43.906Z,22.50
2019-03-29T13:52:14.099Z,22.60
2019-03-29T13:54:44.287Z,22.60
2019-03-29T13:57:14.485Z,22.60
2019-03-29T13:59:44.696Z,22.40
2019-03-29T14:02:16.115Z,22.50
2019-03-29T14:04:46.370Z,22.30
2019-03-29T14:07:16.574Z,22.50
2019-03-29T14:09:46.839Z,22.60
2019-03-29T14:12:17.051Z,22.50
2019-03-29T14:14:47.230Z,22.60
2019-03-29T14:17:17.430Z,22.60
2019-03-29T14:19:47.629Z,22.60
2019-03-29T14:22:17.813Z,22.20
2019-03-29T14:24:47.994Z,22.10
2019-03-29T14:32:56.843Z,22.40
2019-03-29T14:35:27.139Z,22.30
2019-03-29T14:37:57.342Z,22.50
2019-03-29T14:40:27.530Z,22.60
2019-03-29T14:42:57.810Z,22.60
2019-03-29T14:45:28.009Z,22.70
2019-03-29T14:47:58.196Z,22.70
2019-03-29T14:50:28.363Z,22.70
2019-03-29T14:52:58.627Z,22.60
2019-03-29T14:55:28.950Z,22.50
2019-03-29T14:57:59.171Z,22.10
2019-03-29T15:00:54.190Z,22.10
2019-03-29T15:03:24.435Z,22.00
2019-03-29T15:05:55.779Z,22.00
2019-03-29T15:08:26.066Z,22.00
2019-03-29T15:10:56.267Z,22.10
2019-03-29T15:13:27.539Z,22.20
2019-03-29T15:15:57.717Z,22.20
2019-03-29T15:18:27.904Z,22.00
2019-03-29T15:20:58.131Z,22.00
2019-03-29T15:23:28.324Z,22.00
2019-03-29T15:25:58.513Z,21.90
2019-03-29T15:28:28.691Z,21.80
2019-03-29T15:30:58.870Z,21.90
2019-03-29T15:33:29.063Z,22.00
2019-03-29T15:35:59.239Z,21.80
2019-03-29T15:38:29.798Z,21.50
2019-03-29T15:40:59.973Z,21.60
2019-03-29T15:43:30.170Z,21.90
2019-03-29T15:46:00.423Z,21.90
2019-03-29T15:48:30.755Z,22.00
2019-03-29T15:51:01.047Z,22.10
2019-03-29T15:53:31.241Z,22.10
2019-03-29T15:56:02.570Z,22.10
2019-03-29T15:58:33.847Z,22.00
2019-03-29T16:01:04.324Z,22.10
2019-03-29T16:03:34.584Z,22.10
2019-03-29T16:06:04.939Z,22.30
2019-03-29T16:08:35.321Z,22.30
2019-03-29T16:11:08.938Z,22.40
2019-03-29T16:13:37.598Z,22.30
2019-03-29T16:16:07.877Z,22.40
2019-03-29T16:18:38.093Z,22.30
2019-03-29T16:21:08.259Z,22.40
2019-03-29T16:23:38.748Z,22.30
2019-03-29T16:26:09.091Z,22.30
2019-03-29T16:28:39.298Z,22.30
2019-03-29T16:31:09.595Z,22.40
2019-03-29T16:33:39.794Z,22.50
2019-03-29T16:36:10.690Z,22.40
2019-03-29T16:38:40.895Z,22.10
2019-03-29T16:41:11.346Z,22.30
2019-03-29T16:43:41.611Z,22.30
2019-03-29T16:46:12.199Z,22.30
2019-03-29T16:48:42.402Z,22.10
2019-03-29T16:51:12.578Z,22.00
2019-03-29T16:53:42.771Z,21.80
2019-03-29T16:56:12.986Z,22.00
2019-03-29T16:58:43.322Z,22.10
2019-03-29T17:01:13.518Z,21.80
2019-03-29T17:03:43.703Z,22.00
2019-03-29T17:06:13.883Z,21.90
2019-03-29T17:08:44.259Z,22.10
2019-03-29T17:11:14.451Z,21.80
2019-03-29T17:13:44.828Z,21.70
2019-03-29T17:16:15.026Z,21.90
2019-03-29T17:18:45.199Z,22.10
2019-03-29T17:21:15.496Z,22.10
2019-03-29T17:23:45.701Z,22.20
2019-03-29T17:26:15.962Z,22.10
2019-03-29T17:28:46.163Z,22.20
2019-03-29T17:31:16.998Z,22.20
2019-03-29T17:33:47.195Z,22.30
2019-03-29T17:36:17.394Z,22.30
2019-03-29T17:38:47.591Z,22.30
2019-03-29T17:41:17.807Z,22.20
2019-03-29T17:43:48.232Z,22.20
2019-03-29T17:46:18.562Z,22.20
2019-03-29T17:48:48.871Z,22.20
2019-03-29T17:51:19.065Z,22.30
2019-03-29T17:59:24.224Z,22.00
2019-03-29T18:02:08.575Z,22.10
2019-03-29T18:04:26.437Z,22.10
2019-03-29T18:06:56.634Z,22.10
2019-03-29T18:09:26.831Z,22.10
2019-03-29T18:11:57.035Z,22.10
2019-03-29T18:14:27.254Z,22.10
2019-03-29T18:16:57.444Z,22.10
2019-03-29T18:19:27.651Z,22.10
2019-03-29T18:22:06.354Z,22.00
2019-03-29T18:24:42.312Z,22.00
2019-03-29T18:27:14.081Z,22.00
2019-03-29T18:29:50.130Z,22.00
2019-03-29T18:32:20.878Z,21.80
2019-03-29T18:34:51.324Z,21.80
2019-03-29T18:37:22.163Z,21.80
2019-03-29T18:39:54.952Z,21.80
2019-03-29T18:42:25.907Z,21.80
2019-03-29T18:47:43.414Z,21.80
2019-03-29T18:50:13.702Z,21.70
2019-03-29T19:04:23.991Z,21.70
2019-03-29T19:06:54.173Z,21.70
2019-03-29T19:09:24.465Z,21.70
2019-03-29T19:11:54.638Z,21.70
2019-03-29T19:14:24.843Z,21.60
2019-03-29T19:16:59.151Z,21.60
2019-03-29T19:19:26.939Z,21.60
2019-03-29T19:21:57.219Z,21.60
2019-03-29T19:24:27.495Z,21.50
2019-03-29T19:26:57.759Z,21.50
2019-03-29T19:29:27.955Z,21.50
2019-03-29T19:31:58.126Z,21.40
2019-03-29T19:34:39.511Z,21.50
2019-03-29T19:37:09.750Z,21.50
2019-03-29T19:39:40.087Z,21.50
2019-03-29T19:42:10.259Z,21.40
2019-03-29T19:44:40.479Z,21.40
2019-03-29T19:47:13.609Z,21.30
2019-03-29T19:49:42.715Z,21.30
2019-03-29T19:52:12.907Z,21.40
2019-03-29T19:54:43.135Z,21.40
2019-03-29T19:57:13.389Z,21.40
2019-03-29T19:59:43.558Z,21.40
2019-03-29T20:02:14.797Z,21.40
2019-03-29T20:04:45.066Z,21.30
2019-03-29T20:07:20.531Z,21.40
2019-03-29T20:09:50.876Z,21.30
2019-03-29T20:12:33.204Z,21.40
2019-03-29T20:15:09.674Z,21.30
2019-03-29T20:17:49.421Z,21.20
2019-03-29T20:20:23.739Z,21.20
2019-03-29T20:22:55.493Z,21.20
2019-03-29T20:25:26.160Z,21.20
2019-03-29T20:27:58.511Z,21.20
2019-03-29T20:30:29.020Z,21.20
2019-03-29T20:33:07.421Z,21.20
2019-03-29T20:38:36.680Z,21.20
2019-03-29T20:41:06.879Z,21.20
2019-03-29T20:43:37.055Z,21.20
2019-03-29T20:46:07.340Z,21.20
2019-03-29T20:48:37.520Z,21.10
2019-03-29T20:51:07.723Z,21.10
2019-03-29T20:53:48.916Z,21.10
2019-03-29T20:59:15.389Z,21.10
2019-03-29T21:01:45.622Z,21.10
2019-03-29T21:04:19.247Z,20.80
2019-03-29T21:06:49.578Z,20.60
2019-03-29T21:09:19.758Z,20.80
2019-03-29T21:11:50.074Z,20.90
2019-03-29T21:14:20.259Z,21.00
2019-03-29T21:16:51.610Z,21.00
2019-03-29T21:19:21.886Z,21.00
2019-03-29T21:21:53.038Z,21.00
2019-03-29T21:24:23.319Z,21.00
2019-03-29T21:26:53.572Z,21.00
2019-03-29T21:29:23.789Z,21.00
2019-03-29T21:31:53.970Z,21.00
2019-03-29T21:34:24.158Z,21.00
2019-03-29T21:36:54.352Z,21.00
2019-03-29T21:39:25.203Z,21.00
2019-03-29T21:41:56.411Z,20.90
2019-03-29T21:44:27.742Z,21.00
2019-03-29T21:46:57.932Z,21.00
2019-03-29T21:49:28.130Z,20.90
2019-03-29T21:51:58.363Z,20.90
2019-03-29T21:54:28.552Z,20.90
2019-03-29T21:56:58.806Z,20.80
2019-03-29T21:59:29.001Z,20.90
2019-03-29T22:02:00.258Z,20.80
2019-03-29T22:04:30.462Z,20.80
2019-03-29T22:07:00.645Z,20.80
2019-03-29T22:09:36.964Z,20.80
2019-03-29T22:12:02.781Z,20.80
2019-03-29T22:14:32.980Z,20.80
2019-03-29T22:17:03.199Z,20.60
2019-03-29T22:19:33.383Z,20.50
2019-03-29T22:22:03.638Z,20.60
2019-03-29T22:24:33.840Z,20.60
2019-03-29T22:27:05.151Z,20.60
2019-03-29T22:29:35.341Z,20.60
2019-03-29T22:32:05.516Z,20.60
2019-03-29T22:34:35.706Z,20.70
2019-03-29T22:37:05.879Z,20.70
2019-03-29T22:39:36.071Z,20.70
2019-03-29T22:42:06.251Z,20.70
2019-03-29T22:44:36.443Z,20.70
2019-03-29T22:47:06.631Z,20.60
2019-03-29T22:49:36.823Z,20.70
2019-03-29T22:52:07.006Z,20.70
2019-03-29T22:54:37.187Z,20.60
2019-03-29T22:57:07.378Z,20.70
2019-03-29T22:59:37.556Z,20.60
2019-03-29T23:02:07.820Z,20.60
2019-03-29T23:04:39.160Z,20.60
2019-03-29T23:07:09.347Z,20.60
2019-03-29T23:09:39.527Z,20.50
2019-03-29T23:12:09.734Z,20.50
2019-03-29T23:14:39.916Z,20.50
2019-03-29T23:17:10.113Z,20.50
2019-03-29T23:19:40.287Z,20.50
2019-03-29T23:22:10.583Z,20.40
2019-03-29T23:24:40.766Z,20.40
2019-03-29T23:27:11.131Z,20.40
2019-03-29T23:29:41.305Z,20.30
2019-03-29T23:32:12.082Z,20.30
2019-03-29T23:34:42.263Z,20.30
2019-03-29T23:37:12.450Z,20.30
2019-03-29T23:39:42.667Z,20.30
2019-03-29T23:42:13.011Z,20.30
2019-03-29T23:44:43.194Z,20.30
2019-03-29T23:47:13.396Z,20.20
2019-03-29T23:49:44.731Z,20.20
2019-03-29T23:52:14.929Z,20.20
2019-03-29T23:54:45.196Z,20.20
2019-03-29T23:57:15.400Z,20.20
2019-03-29T23:59:45.570Z,20.20
